WZZ4764 LHBP-LIBD
Flight info
| Callsign | WZZ4764 |
|---|---|
| Flight time | 1h 5m |
| Altitude | 38000 |
| Route | DUZLA DCT OSDUK DCT NETKO DCT AIOSA DCT BANAV |
| Aircraft | A321/M-SDE1E2E3FGIJ1J4RWXY/LB1 |
Departure
| Time | 2026-05-05 11:57 |
|---|---|
| Airport | Budapest Liszt Ferenc International Airport (LHBP) |
Arrival
| Time | 2026-05-05 13:03 |
|---|---|
| Airport | Bari Karol Wojtyła International Airport (LIBD) |
| Time | Latitude | Longitude | Altitude | Speed | Heading |
|---|---|---|---|---|---|
| 2026-05-05 11:26 | 47.43543 | 19.26017 | 457 ft | 0 kts | 312° |
| 2026-05-05 11:54 | 47.43549 | 19.26007 | 457 ft | 3 kts | 312° |
| 2026-05-05 11:54 | 47.43567 | 19.25979 | 455 ft | 5 kts | 312° |
| 2026-05-05 11:54 | 47.43599 | 19.25970 | 457 ft | 6 kts | 31° |
| 2026-05-05 11:54 | 47.43645 | 19.26032 | 457 ft | 12 kts | 38° |
| 2026-05-05 11:55 | 47.43716 | 19.26001 | 457 ft | 13 kts | 311° |
| 2026-05-05 11:55 | 47.43793 | 19.25991 | 456 ft | 13 kts | 40° |
| 2026-05-05 11:55 | 47.43867 | 19.26089 | 458 ft | 15 kts | 42° |
| 2026-05-05 11:55 | 47.43949 | 19.26199 | 458 ft | 16 kts | 42° |
| 2026-05-05 11:56 | 47.44032 | 19.26313 | 462 ft | 16 kts | 45° |
| 2026-05-05 11:56 | 47.44069 | 19.26429 | 471 ft | 10 kts | 80° |
| 2026-05-05 11:56 | 47.44071 | 19.26518 | 471 ft | 8 kts | 116° |
| 2026-05-05 11:56 | 47.44013 | 19.26613 | 470 ft | 26 kts | 132° |
| 2026-05-05 11:57 | 47.43699 | 19.27120 | 472 ft | 105 kts | 133° |
| 2026-05-05 11:57 | 47.43062 | 19.28138 | 621 ft | 150 kts | 137° |
| 2026-05-05 11:57 | 47.42368 | 19.29267 | 1399 ft | 149 kts | 140° |
| 2026-05-05 11:57 | 47.41787 | 19.30585 | 2176 ft | 155 kts | 127° |
| 2026-05-05 11:58 | 47.41256 | 19.31967 | 2968 ft | 155 kts | 127° |
| 2026-05-05 11:58 | 47.40734 | 19.33354 | 3689 ft | 156 kts | 125° |
| 2026-05-05 11:58 | 47.40181 | 19.34806 | 4211 ft | 172 kts | 125° |
| 2026-05-05 11:58 | 47.39554 | 19.36435 | 4572 ft | 194 kts | 124° |
| 2026-05-05 11:59 | 47.38854 | 19.38262 | 4932 ft | 215 kts | 124° |
| 2026-05-05 11:59 | 47.37883 | 19.40034 | 5171 ft | 233 kts | 152° |
| 2026-05-05 11:59 | 47.36288 | 19.40587 | 5575 ft | 247 kts | 189° |
| 2026-05-05 11:59 | 47.34755 | 19.39479 | 6330 ft | 253 kts | 225° |
| 2026-05-05 12:00 | 47.33762 | 19.37323 | 7230 ft | 257 kts | 239° |
| 2026-05-05 12:00 | 47.32753 | 19.35157 | 8067 ft | 258 kts | 219° |
| 2026-05-05 12:00 | 47.31225 | 19.33769 | 8913 ft | 261 kts | 207° |
| 2026-05-05 12:00 | 47.29611 | 19.32509 | 9818 ft | 264 kts | 207° |
| 2026-05-05 12:01 | 47.27968 | 19.31205 | 10453 ft | 277 kts | 207° |
| 2026-05-05 12:01 | 47.26200 | 19.29788 | 10744 ft | 301 kts | 208° |
| 2026-05-05 12:01 | 47.24323 | 19.28272 | 11290 ft | 312 kts | 208° |
| 2026-05-05 12:01 | 47.22405 | 19.26714 | 12046 ft | 317 kts | 208° |
| 2026-05-05 12:02 | 47.20464 | 19.25130 | 12839 ft | 321 kts | 208° |
| 2026-05-05 12:02 | 47.18499 | 19.23525 | 13628 ft | 325 kts | 208° |
| 2026-05-05 12:02 | 47.16509 | 19.21904 | 14329 ft | 329 kts | 208° |
| 2026-05-05 12:02 | 47.14495 | 19.20269 | 15021 ft | 334 kts | 208° |
| 2026-05-05 12:03 | 47.12449 | 19.18611 | 15716 ft | 338 kts | 208° |
| 2026-05-05 12:03 | 47.10375 | 19.16932 | 16438 ft | 343 kts | 208° |
| 2026-05-05 12:03 | 47.08273 | 19.15232 | 17138 ft | 347 kts | 208° |
| 2026-05-05 12:03 | 47.06140 | 19.13511 | 17837 ft | 352 kts | 208° |
| 2026-05-05 12:04 | 47.03980 | 19.11771 | 18508 ft | 356 kts | 208° |
| 2026-05-05 12:04 | 47.01796 | 19.10012 | 19135 ft | 360 kts | 208° |
| 2026-05-05 12:04 | 46.99589 | 19.08234 | 19764 ft | 364 kts | 209° |
| 2026-05-05 12:04 | 46.97358 | 19.06440 | 20401 ft | 368 kts | 209° |
| 2026-05-05 12:05 | 46.95101 | 19.04628 | 21017 ft | 372 kts | 209° |
| 2026-05-05 12:05 | 46.92819 | 19.02794 | 21625 ft | 376 kts | 210° |
| 2026-05-05 12:05 | 46.90513 | 19.00939 | 22259 ft | 380 kts | 210° |
| 2026-05-05 12:05 | 46.88179 | 18.99065 | 22859 ft | 385 kts | 210° |
| 2026-05-05 12:06 | 46.85817 | 18.97173 | 23448 ft | 390 kts | 210° |
| 2026-05-05 12:06 | 46.83433 | 18.95261 | 23924 ft | 394 kts | 210° |
| 2026-05-05 12:06 | 46.81019 | 18.93326 | 24410 ft | 397 kts | 210° |
| 2026-05-05 12:06 | 46.78584 | 18.91379 | 24897 ft | 401 kts | 210° |
| 2026-05-05 12:07 | 46.76131 | 18.89419 | 25388 ft | 404 kts | 210° |
| 2026-05-05 12:07 | 46.73691 | 18.87477 | 25873 ft | 406 kts | 210° |
| 2026-05-05 12:07 | 46.71199 | 18.85498 | 26368 ft | 409 kts | 210° |
| 2026-05-05 12:07 | 46.68695 | 18.83511 | 26860 ft | 411 kts | 209° |
| 2026-05-05 12:08 | 46.66172 | 18.81510 | 27329 ft | 415 kts | 209° |
| 2026-05-05 12:08 | 46.63629 | 18.79495 | 27792 ft | 417 kts | 209° |
| 2026-05-05 12:08 | 46.61907 | 18.78129 | 28108 ft | 419 kts | 209° |
| 2026-05-05 12:08 | 46.59341 | 18.76094 | 28598 ft | 421 kts | 209° |
| 2026-05-05 12:09 | 46.55916 | 18.73379 | 29194 ft | 425 kts | 209° |
| 2026-05-05 12:09 | 46.53300 | 18.71310 | 29639 ft | 428 kts | 209° |
| 2026-05-05 12:09 | 46.50677 | 18.69243 | 30090 ft | 430 kts | 209° |
| 2026-05-05 12:09 | 46.48895 | 18.67841 | 30341 ft | 432 kts | 209° |
| 2026-05-05 12:10 | 46.46242 | 18.65754 | 30685 ft | 435 kts | 209° |
| 2026-05-05 12:10 | 46.43570 | 18.63652 | 31009 ft | 438 kts | 209° |
| 2026-05-05 12:10 | 46.40883 | 18.61539 | 31379 ft | 441 kts | 210° |
| 2026-05-05 12:10 | 46.38181 | 18.59412 | 31785 ft | 442 kts | 210° |
| 2026-05-05 12:11 | 46.35479 | 18.57289 | 32309 ft | 441 kts | 210° |
| 2026-05-05 12:11 | 46.32784 | 18.55176 | 32837 ft | 440 kts | 210° |
| 2026-05-05 12:11 | 46.30097 | 18.53076 | 33349 ft | 439 kts | 210° |
| 2026-05-05 12:11 | 46.27412 | 18.50984 | 33856 ft | 438 kts | 210° |
| 2026-05-05 12:12 | 46.24737 | 18.48902 | 34291 ft | 437 kts | 210° |
| 2026-05-05 12:12 | 46.22060 | 18.46817 | 34704 ft | 436 kts | 210° |
| 2026-05-05 12:12 | 46.19425 | 18.44763 | 35105 ft | 436 kts | 210° |
| 2026-05-05 12:12 | 46.16755 | 18.42684 | 35487 ft | 436 kts | 210° |
| 2026-05-05 12:13 | 46.14090 | 18.40613 | 35865 ft | 436 kts | 210° |
| 2026-05-05 12:13 | 46.11413 | 18.38537 | 36243 ft | 436 kts | 210° |
| 2026-05-05 12:13 | 46.08745 | 18.36466 | 36614 ft | 436 kts | 211° |
| 2026-05-05 12:13 | 46.06074 | 18.34397 | 36954 ft | 436 kts | 211° |
| 2026-05-05 12:14 | 46.03407 | 18.32332 | 37295 ft | 436 kts | 211° |
| 2026-05-05 12:14 | 46.00743 | 18.30273 | 37628 ft | 436 kts | 211° |
| 2026-05-05 12:14 | 45.98069 | 18.28207 | 37925 ft | 436 kts | 211° |
| 2026-05-05 12:14 | 45.95397 | 18.26140 | 37991 ft | 436 kts | 211° |
| 2026-05-05 12:15 | 45.90062 | 18.22025 | 37997 ft | 435 kts | 211° |
| 2026-05-05 12:15 | 45.84727 | 18.17944 | 38004 ft | 435 kts | 211° |
| 2026-05-05 12:16 | 45.79297 | 18.14108 | 37990 ft | 437 kts | 201° |
| 2026-05-05 12:16 | 45.73308 | 18.12369 | 37995 ft | 442 kts | 189° |
| 2026-05-05 12:17 | 45.67197 | 18.11291 | 37986 ft | 443 kts | 190° |
| 2026-05-05 12:17 | 45.61077 | 18.10194 | 37991 ft | 443 kts | 190° |
| 2026-05-05 12:18 | 45.54992 | 18.09095 | 37998 ft | 444 kts | 190° |
| 2026-05-05 12:18 | 45.48830 | 18.07998 | 37995 ft | 444 kts | 190° |
| 2026-05-05 12:19 | 45.42744 | 18.06915 | 38003 ft | 443 kts | 190° |
| 2026-05-05 12:19 | 45.36621 | 18.05832 | 38005 ft | 443 kts | 190° |
| 2026-05-05 12:20 | 45.30502 | 18.04737 | 38005 ft | 443 kts | 190° |
| 2026-05-05 12:20 | 45.24383 | 18.03647 | 38001 ft | 443 kts | 190° |
| 2026-05-05 12:21 | 45.18255 | 18.02571 | 37996 ft | 444 kts | 190° |
| 2026-05-05 12:21 | 45.12123 | 18.01489 | 37990 ft | 444 kts | 190° |
| 2026-05-05 12:22 | 45.05997 | 18.00410 | 37992 ft | 444 kts | 190° |
| 2026-05-05 12:22 | 44.99864 | 17.99331 | 37995 ft | 444 kts | 190° |
| 2026-05-05 12:23 | 44.93730 | 17.98268 | 37996 ft | 444 kts | 190° |
| 2026-05-05 12:23 | 44.87602 | 17.97197 | 37998 ft | 443 kts | 191° |
| 2026-05-05 12:24 | 44.81482 | 17.96130 | 38003 ft | 443 kts | 191° |
| 2026-05-05 12:24 | 44.75373 | 17.95054 | 38002 ft | 442 kts | 191° |
| 2026-05-05 12:25 | 44.69259 | 17.94000 | 38004 ft | 442 kts | 191° |
| 2026-05-05 12:25 | 44.63164 | 17.92949 | 38011 ft | 442 kts | 191° |
| 2026-05-05 12:26 | 44.57065 | 17.91898 | 38013 ft | 441 kts | 191° |
| 2026-05-05 12:26 | 44.50972 | 17.90839 | 38006 ft | 441 kts | 191° |
| 2026-05-05 12:27 | 44.44889 | 17.89792 | 38018 ft | 441 kts | 191° |
| 2026-05-05 12:27 | 44.38793 | 17.88753 | 38022 ft | 441 kts | 191° |
| 2026-05-05 12:28 | 44.32702 | 17.87715 | 38021 ft | 441 kts | 191° |
| 2026-05-05 12:28 | 44.26603 | 17.86667 | 38021 ft | 441 kts | 191° |
| 2026-05-05 12:29 | 44.20505 | 17.85624 | 38041 ft | 442 kts | 191° |
| 2026-05-05 12:29 | 44.14441 | 17.84597 | 38035 ft | 442 kts | 191° |
| 2026-05-05 12:30 | 44.08339 | 17.83555 | 38043 ft | 442 kts | 191° |
| 2026-05-05 12:30 | 44.02237 | 17.82510 | 38059 ft | 442 kts | 192° |
| 2026-05-05 12:31 | 43.96131 | 17.81472 | 38055 ft | 442 kts | 192° |
| 2026-05-05 12:31 | 43.90022 | 17.80445 | 38072 ft | 442 kts | 192° |
| 2026-05-05 12:32 | 43.83918 | 17.79418 | 38071 ft | 441 kts | 192° |
| 2026-05-05 12:32 | 43.77826 | 17.78399 | 38072 ft | 442 kts | 192° |
| 2026-05-05 12:33 | 43.71728 | 17.77376 | 38091 ft | 441 kts | 192° |
| 2026-05-05 12:33 | 43.65644 | 17.76354 | 38100 ft | 441 kts | 192° |
| 2026-05-05 12:34 | 43.59547 | 17.75329 | 38092 ft | 441 kts | 192° |
| 2026-05-05 12:34 | 43.53457 | 17.74305 | 38088 ft | 441 kts | 192° |
| 2026-05-05 12:35 | 43.47382 | 17.73300 | 38096 ft | 440 kts | 192° |
| 2026-05-05 12:35 | 43.41292 | 17.72300 | 38108 ft | 440 kts | 192° |
| 2026-05-05 12:36 | 43.35210 | 17.71283 | 38114 ft | 440 kts | 192° |
| 2026-05-05 12:36 | 43.29142 | 17.70273 | 38112 ft | 440 kts | 192° |
| 2026-05-05 12:37 | 43.23058 | 17.69266 | 38114 ft | 440 kts | 192° |
| 2026-05-05 12:37 | 43.16985 | 17.68270 | 38111 ft | 440 kts | 192° |
| 2026-05-05 12:38 | 43.10916 | 17.67277 | 38106 ft | 440 kts | 192° |
| 2026-05-05 12:38 | 43.04838 | 17.66261 | 38106 ft | 438 kts | 195° |
| 2026-05-05 12:39 | 42.98979 | 17.64204 | 38094 ft | 434 kts | 201° |
| 2026-05-05 12:39 | 42.96071 | 17.63099 | 37765 ft | 433 kts | 200° |
| 2026-05-05 12:39 | 42.93160 | 17.61996 | 37163 ft | 434 kts | 200° |
| 2026-05-05 12:40 | 42.90246 | 17.60901 | 36553 ft | 435 kts | 200° |
| 2026-05-05 12:40 | 42.87326 | 17.59806 | 35928 ft | 436 kts | 200° |
| 2026-05-05 12:40 | 42.84394 | 17.58709 | 35295 ft | 437 kts | 200° |
| 2026-05-05 12:40 | 42.81467 | 17.57612 | 34840 ft | 435 kts | 200° |
| 2026-05-05 12:41 | 42.78563 | 17.56528 | 34405 ft | 431 kts | 200° |
| 2026-05-05 12:41 | 42.75681 | 17.55451 | 33943 ft | 428 kts | 200° |
| 2026-05-05 12:41 | 42.72824 | 17.54379 | 33435 ft | 425 kts | 200° |
| 2026-05-05 12:41 | 42.69985 | 17.53314 | 32926 ft | 422 kts | 200° |
| 2026-05-05 12:42 | 42.67168 | 17.52258 | 32411 ft | 419 kts | 200° |
| 2026-05-05 12:42 | 42.64370 | 17.51214 | 31916 ft | 415 kts | 200° |
| 2026-05-05 12:42 | 42.61591 | 17.50181 | 31420 ft | 412 kts | 200° |
| 2026-05-05 12:42 | 42.58833 | 17.49158 | 30935 ft | 410 kts | 200° |
| 2026-05-05 12:43 | 42.56088 | 17.48140 | 30450 ft | 408 kts | 199° |
| 2026-05-05 12:43 | 42.53357 | 17.47127 | 29932 ft | 406 kts | 199° |
| 2026-05-05 12:43 | 42.50677 | 17.46131 | 29408 ft | 403 kts | 199° |
| 2026-05-05 12:43 | 42.47983 | 17.45131 | 28900 ft | 400 kts | 200° |
| 2026-05-05 12:44 | 42.45311 | 17.44144 | 28435 ft | 396 kts | 200° |
| 2026-05-05 12:44 | 42.42663 | 17.43158 | 27977 ft | 393 kts | 200° |
| 2026-05-05 12:44 | 42.40034 | 17.42177 | 27525 ft | 390 kts | 200° |
| 2026-05-05 12:44 | 42.37423 | 17.41208 | 27092 ft | 388 kts | 199° |
| 2026-05-05 12:45 | 42.34831 | 17.40249 | 26676 ft | 385 kts | 199° |
| 2026-05-05 12:45 | 42.32256 | 17.39299 | 26267 ft | 383 kts | 199° |
| 2026-05-05 12:45 | 42.29692 | 17.38350 | 25864 ft | 380 kts | 199° |
| 2026-05-05 12:45 | 42.27162 | 17.37413 | 25454 ft | 378 kts | 200° |
| 2026-05-05 12:46 | 42.24634 | 17.36484 | 25033 ft | 375 kts | 199° |
| 2026-05-05 12:46 | 42.22117 | 17.35555 | 24621 ft | 373 kts | 199° |
| 2026-05-05 12:46 | 42.19619 | 17.34633 | 24212 ft | 371 kts | 199° |
| 2026-05-05 12:46 | 42.17136 | 17.33719 | 23792 ft | 369 kts | 199° |
| 2026-05-05 12:47 | 42.14670 | 17.32816 | 23336 ft | 367 kts | 199° |
| 2026-05-05 12:47 | 42.12215 | 17.31919 | 22859 ft | 364 kts | 199° |
| 2026-05-05 12:47 | 42.09773 | 17.31028 | 22337 ft | 363 kts | 199° |
| 2026-05-05 12:47 | 42.07339 | 17.30140 | 21809 ft | 362 kts | 199° |
| 2026-05-05 12:48 | 42.04914 | 17.29253 | 21297 ft | 361 kts | 199° |
| 2026-05-05 12:48 | 42.02497 | 17.28368 | 20794 ft | 359 kts | 199° |
| 2026-05-05 12:48 | 42.00095 | 17.27490 | 20302 ft | 358 kts | 199° |
| 2026-05-05 12:48 | 41.97727 | 17.26626 | 19821 ft | 356 kts | 199° |
| 2026-05-05 12:49 | 41.95305 | 17.25744 | 19324 ft | 354 kts | 199° |
| 2026-05-05 12:49 | 41.92967 | 17.24891 | 18869 ft | 353 kts | 198° |
| 2026-05-05 12:49 | 41.90581 | 17.24136 | 18400 ft | 352 kts | 195° |
| 2026-05-05 12:49 | 41.88187 | 17.23501 | 17872 ft | 350 kts | 194° |
| 2026-05-05 12:50 | 41.85792 | 17.22930 | 17347 ft | 348 kts | 193° |
| 2026-05-05 12:50 | 41.83409 | 17.22388 | 16826 ft | 346 kts | 193° |
| 2026-05-05 12:50 | 41.81043 | 17.21845 | 16320 ft | 344 kts | 193° |
| 2026-05-05 12:50 | 41.78702 | 17.21289 | 15816 ft | 341 kts | 193° |
| 2026-05-05 12:51 | 41.76376 | 17.20720 | 15317 ft | 338 kts | 193° |
| 2026-05-05 12:51 | 41.74069 | 17.20147 | 14838 ft | 336 kts | 193° |
| 2026-05-05 12:51 | 41.71782 | 17.19574 | 14353 ft | 330 kts | 193° |
| 2026-05-05 12:51 | 41.69559 | 17.19017 | 13877 ft | 319 kts | 193° |
| 2026-05-05 12:52 | 41.67398 | 17.18475 | 13350 ft | 316 kts | 193° |
| 2026-05-05 12:52 | 41.65240 | 17.17931 | 12830 ft | 316 kts | 193° |
| 2026-05-05 12:52 | 41.63081 | 17.17386 | 12333 ft | 315 kts | 193° |
| 2026-05-05 12:52 | 41.60961 | 17.16854 | 12102 ft | 306 kts | 193° |
| 2026-05-05 12:53 | 41.58882 | 17.16339 | 11746 ft | 302 kts | 193° |
| 2026-05-05 12:53 | 41.56831 | 17.15830 | 11281 ft | 297 kts | 192° |
| 2026-05-05 12:53 | 41.54797 | 17.15322 | 10775 ft | 296 kts | 193° |
| 2026-05-05 12:53 | 41.52783 | 17.14820 | 10307 ft | 294 kts | 192° |
| 2026-05-05 12:54 | 41.48851 | 17.13845 | 9804 ft | 280 kts | 192° |
| 2026-05-05 12:54 | 41.46950 | 17.13378 | 9485 ft | 276 kts | 192° |
| 2026-05-05 12:54 | 41.45066 | 17.12911 | 9100 ft | 275 kts | 192° |
| 2026-05-05 12:55 | 41.43189 | 17.12441 | 8702 ft | 274 kts | 192° |
| 2026-05-05 12:55 | 41.41321 | 17.11974 | 8323 ft | 273 kts | 191° |
| 2026-05-05 12:55 | 41.39457 | 17.11510 | 7948 ft | 272 kts | 191° |
| 2026-05-05 12:55 | 41.37602 | 17.11052 | 7575 ft | 270 kts | 191° |
| 2026-05-05 12:56 | 41.35755 | 17.10598 | 7209 ft | 269 kts | 191° |
| 2026-05-05 12:56 | 41.33921 | 17.10146 | 6849 ft | 267 kts | 191° |
| 2026-05-05 12:56 | 41.32107 | 17.09697 | 6571 ft | 263 kts | 191° |
| 2026-05-05 12:56 | 41.30915 | 17.09403 | 6334 ft | 262 kts | 191° |
| 2026-05-05 12:57 | 41.29131 | 17.08966 | 5974 ft | 260 kts | 191° |
| 2026-05-05 12:57 | 41.27354 | 17.08529 | 5627 ft | 259 kts | 191° |
| 2026-05-05 12:57 | 41.25590 | 17.08097 | 5274 ft | 258 kts | 191° |
| 2026-05-05 12:57 | 41.23824 | 17.07648 | 4904 ft | 257 kts | 194° |
| 2026-05-05 12:58 | 41.22221 | 17.06659 | 4531 ft | 255 kts | 217° |
| 2026-05-05 12:58 | 41.21066 | 17.04889 | 4145 ft | 256 kts | 240° |
| 2026-05-05 12:58 | 41.20472 | 17.02693 | 3954 ft | 248 kts | 252° |
| 2026-05-05 12:58 | 41.19983 | 17.00570 | 3951 ft | 232 kts | 251° |
| 2026-05-05 12:59 | 41.19514 | 16.98575 | 3866 ft | 219 kts | 251° |
| 2026-05-05 12:59 | 41.19072 | 16.96710 | 3714 ft | 207 kts | 251° |
| 2026-05-05 12:59 | 41.18651 | 16.94951 | 3598 ft | 192 kts | 251° |
| 2026-05-05 13:00 | 41.17873 | 16.91694 | 2825 ft | 186 kts | 250° |
| 2026-05-05 13:00 | 41.17472 | 16.90055 | 2328 ft | 188 kts | 250° |
| 2026-05-05 13:01 | 41.16343 | 16.85441 | 1408 ft | 155 kts | 250° |
| 2026-05-05 13:01 | 41.16026 | 16.84145 | 1201 ft | 142 kts | 250° |
| 2026-05-05 13:01 | 41.15728 | 16.82933 | 998 ft | 137 kts | 250° |
| 2026-05-05 13:01 | 41.15432 | 16.81737 | 816 ft | 136 kts | 252° |
| 2026-05-05 13:02 | 41.15137 | 16.80545 | 645 ft | 137 kts | 252° |
| 2026-05-05 13:02 | 41.14793 | 16.79366 | 469 ft | 139 kts | 249° |
| 2026-05-05 13:02 | 41.14447 | 16.78172 | 290 ft | 139 kts | 252° |
| 2026-05-05 13:02 | 41.14111 | 16.76988 | 127 ft | 132 kts | 253° |
| 2026-05-05 13:03 | 41.13839 | 16.76018 | 137 ft | 89 kts | 249° |
| 2026-05-05 13:03 | 41.13762 | 16.75755 | 139 ft | 1 kts | 221° |
| 2026-05-05 13:03 | 41.13736 | 16.75739 | 140 ft | 9 kts | 210° |
| 2026-05-05 13:03 | 41.13679 | 16.75707 | 141 ft | 8 kts | 159° |
| 2026-05-05 13:04 | 41.13657 | 16.75783 | 141 ft | 10 kts | 104° |
| 2026-05-05 13:04 | 41.13634 | 16.75899 | 137 ft | 15 kts | 102° |
| 2026-05-05 13:04 | 41.13658 | 16.76038 | 136 ft | 17 kts | 70° |
| 2026-05-05 13:04 | 41.13702 | 16.76191 | 136 ft | 19 kts | 69° |
| 2026-05-05 13:05 | 41.13751 | 16.76364 | 135 ft | 21 kts | 69° |
| 2026-05-05 13:05 | 41.13801 | 16.76536 | 134 ft | 20 kts | 69° |
| 2026-05-05 13:05 | 41.13846 | 16.76700 | 126 ft | 15 kts | 70° |
| 2026-05-05 13:05 | 41.13820 | 16.76768 | 131 ft | 8 kts | 156° |
| 2026-05-05 13:06 | 41.13777 | 16.76761 | 133 ft | 5 kts | 220° |
| 2026-05-05 13:06 | 41.13762 | 16.76725 | 135 ft | 4 kts | 246° |
| 2026-05-05 13:06 | 41.13744 | 16.76695 | 136 ft | 4 kts | 202° |
| 2026-05-05 13:06 | 41.13703 | 16.76712 | 136 ft | 7 kts | 160° |
| 2026-05-05 13:07 | 41.13679 | 16.76706 | 136 ft | 0 kts | 204° |